createdAt,value
2022-12-03T07:53:01.199Z,100812.19
2022-12-03T07:55:29.167Z,100807.00
2022-12-03T07:57:57.196Z,100801.75
2022-12-03T08:00:25.470Z,100800.84
2022-12-03T08:02:53.476Z,100811.28
2022-12-03T08:05:21.513Z,100808.69
2022-12-03T08:07:49.599Z,100813.97
2022-12-03T08:10:19.410Z,100813.06
2022-12-03T08:12:47.863Z,100794.03
2022-12-03T08:15:18.112Z,100816.50
2022-12-03T08:17:48.277Z,100817.25
2022-12-03T08:20:18.996Z,100831.03
2022-12-03T08:22:51.129Z,100821.34
2022-12-03T08:25:23.562Z,100822.06
2022-12-03T08:27:53.081Z,100827.16
2022-12-03T08:30:21.673Z,100823.69
2022-12-03T08:32:50.309Z,100815.03
2022-12-03T08:35:24.218Z,100820.16
2022-12-03T08:38:02.238Z,100824.41
2022-12-03T08:40:36.568Z,100823.50
2022-12-03T08:43:15.701Z,100830.56
2022-12-03T08:45:44.272Z,100816.75
2022-12-03T08:48:34.850Z,100835.78
2022-12-03T08:51:10.428Z,100834.03
2022-12-03T08:53:43.180Z,100833.88
2022-12-03T08:56:20.537Z,100845.91
2022-12-03T08:58:49.432Z,100839.72
2022-12-03T09:01:32.004Z,100836.22
2022-12-03T09:04:16.431Z,100837.97
2022-12-03T09:06:44.493Z,100840.53
2022-12-03T09:09:12.667Z,100848.47
2022-12-03T09:11:44.585Z,100838.88
2022-12-03T09:14:18.931Z,100819.59
2022-12-03T09:16:48.075Z,100820.28
2022-12-03T09:19:16.618Z,100822.78
2022-12-03T09:21:44.575Z,100810.47
2022-12-03T09:24:12.868Z,100817.09
2022-12-03T09:26:42.336Z,100823.91
2022-12-03T09:29:12.286Z,100822.25
2022-12-03T09:31:41.585Z,100818.03
2022-12-03T09:34:10.984Z,100822.38
2022-12-03T09:36:39.121Z,100820.66
2022-12-03T09:39:07.165Z,100812.81
2022-12-03T09:41:35.269Z,100812.53
2022-12-03T09:44:05.751Z,100796.88
2022-12-03T09:46:35.980Z,100805.63
2022-12-03T09:49:10.843Z,100810.00
2022-12-03T09:51:42.388Z,100809.66
2022-12-03T09:54:16.614Z,100809.44
2022-12-03T09:56:44.672Z,100818.78
2022-12-03T09:59:16.658Z,100804.63
2022-12-03T10:01:45.204Z,100801.53
2022-12-03T10:04:13.532Z,100788.81
2022-12-03T10:06:45.729Z,100788.72
2022-12-03T10:09:17.431Z,100785.84
2022-12-03T10:11:45.768Z,100779.16
2022-12-03T10:14:18.694Z,100782.09
2022-12-03T10:16:47.463Z,100778.56
2022-12-03T10:19:21.212Z,100777.53
2022-12-03T10:21:49.261Z,100763.25
2022-12-03T10:24:26.767Z,100769.28
2022-12-03T10:26:56.995Z,100762.28
2022-12-03T10:29:33.127Z,100769.75
2022-12-03T10:32:03.653Z,100761.38
2022-12-03T10:34:33.554Z,100750.78
2022-12-03T10:37:28.303Z,100745.63
2022-12-03T10:39:59.616Z,100724.59
2022-12-03T10:42:29.654Z,100752.03
2022-12-03T10:45:30.571Z,100744.53
2022-12-03T10:48:08.369Z,100735.09
2022-12-03T10:50:43.076Z,100739.22
2022-12-03T10:53:12.624Z,100736.47
2022-12-03T10:56:00.837Z,100739.09
2022-12-03T10:58:46.289Z,100726.91
2022-12-03T11:04:19.089Z,100711.81
2022-12-03T11:06:47.261Z,100725.28
2022-12-03T11:09:19.795Z,100724.78
2022-12-03T11:11:48.124Z,100717.72
2022-12-03T11:14:55.088Z,100715.94
2022-12-03T11:17:44.329Z,100710.94
2022-12-03T11:20:35.379Z,100711.47
2022-12-03T11:23:04.938Z,100703.16
2022-12-03T11:25:47.915Z,100697.91
2022-12-03T11:28:33.262Z,100703.38
2022-12-03T11:31:03.368Z,100700.38
2022-12-03T11:33:33.481Z,100697.47
2022-12-03T11:36:13.280Z,100694.28
2022-12-03T11:38:52.637Z,100686.56
2022-12-03T11:41:23.809Z,100685.06
2022-12-03T11:44:20.390Z,100702.97
2022-12-03T11:46:49.651Z,100690.66
2022-12-03T11:49:26.913Z,100690.44
2022-12-03T11:51:54.941Z,100696.47
2022-12-03T11:54:25.548Z,100686.31
2022-12-03T11:56:54.573Z,100680.38
2022-12-03T11:59:22.686Z,100679.19
2022-12-03T12:01:50.653Z,100679.03
2022-12-03T12:04:31.579Z,100678.91
2022-12-03T12:06:59.800Z,100685.91
2022-12-03T12:09:52.168Z,100675.41
2022-12-03T12:12:31.478Z,100670.06
2022-12-03T12:15:00.425Z,100653.41
2022-12-03T12:17:33.539Z,100660.69
2022-12-03T12:20:27.825Z,100653.41
2022-12-03T12:22:56.696Z,100655.69
2022-12-03T12:25:40.303Z,100664.44
2022-12-03T12:28:09.454Z,100655.81
2022-12-03T12:30:37.471Z,100664.50
2022-12-03T12:33:23.343Z,100664.75
2022-12-03T12:35:52.341Z,100656.97
2022-12-03T12:38:22.113Z,100665.44
2022-12-03T12:40:52.339Z,100656.84
2022-12-03T12:43:24.851Z,100649.91
2022-12-03T12:45:54.684Z,100656.84
2022-12-03T12:48:26.395Z,100652.66
2022-12-03T12:51:07.194Z,100652.75
2022-12-03T12:53:37.007Z,100645.16
2022-12-03T12:56:14.520Z,100634.03
2022-12-03T12:58:43.467Z,100643.72
2022-12-03T13:01:21.169Z,100642.09
2022-12-03T13:03:51.747Z,100626.50
2022-12-03T13:06:24.870Z,100641.31
2022-12-03T13:08:53.705Z,100645.66
2022-12-03T13:11:35.537Z,100649.00
2022-12-03T13:14:08.441Z,100642.94
2022-12-03T13:16:36.735Z,100655.00
2022-12-03T13:19:17.820Z,100645.50
2022-12-03T13:21:46.170Z,100650.72
2022-12-03T13:24:30.086Z,100653.47
2022-12-03T13:27:00.541Z,100655.31
2022-12-03T13:29:29.163Z,100652.66
2022-12-03T13:31:59.404Z,100652.69
2022-12-03T13:34:29.367Z,100646.50
2022-12-03T13:36:58.723Z,100655.34
2022-12-03T13:39:33.030Z,100661.59
2022-12-03T13:42:34.431Z,100656.22
2022-12-03T13:45:03.883Z,100653.03
2022-12-03T13:47:33.261Z,100645.00
2022-12-03T13:50:04.732Z,100655.69
2022-12-03T13:52:35.839Z,100654.91
2022-12-03T13:55:04.736Z,100655.78
2022-12-03T13:57:34.160Z,100668.00
2022-12-03T14:00:02.138Z,100659.28
2022-12-03T14:02:30.195Z,100657.53
2022-12-03T14:05:00.417Z,100661.91
2022-12-03T14:07:28.998Z,100662.91
2022-12-03T14:09:57.356Z,100667.41
2022-12-03T14:12:29.098Z,100663.13
2022-12-03T14:14:58.607Z,100662.22
2022-12-03T14:17:26.639Z,100668.38
2022-12-03T14:19:54.981Z,100659.78
2022-12-03T14:22:25.448Z,100660.69
2022-12-03T14:24:54.077Z,100662.63
2022-12-03T14:27:22.308Z,100668.78
2022-12-03T14:29:50.443Z,100678.34
2022-12-03T14:32:19.845Z,100674.88
2022-12-03T14:34:47.848Z,100666.97
2022-12-03T14:37:15.945Z,100669.75
2022-12-03T14:39:43.915Z,100675.03
2022-12-03T14:42:14.494Z,100673.34
2022-12-03T14:44:43.254Z,100665.47
2022-12-03T14:47:11.758Z,100667.31
2022-12-03T14:49:41.197Z,100668.22
2022-12-03T14:52:13.085Z,100662.31
2022-12-03T14:54:42.776Z,100668.69
2022-12-03T14:57:12.777Z,100675.63
2022-12-03T14:59:43.740Z,100681.75
2022-12-03T15:02:12.987Z,100679.19
2022-12-03T15:04:42.857Z,100670.31
2022-12-03T15:07:11.775Z,100679.94
2022-12-03T15:09:41.949Z,100676.47
2022-12-03T15:12:09.971Z,100682.53
2022-12-03T15:14:43.007Z,100675.63
2022-12-03T15:17:11.036Z,100672.19
2022-12-03T15:19:41.647Z,100672.09
2022-12-03T15:22:11.070Z,100687.16
2022-12-03T15:24:39.099Z,100683.72
2022-12-03T15:27:07.106Z,100683.72
2022-12-03T15:29:35.089Z,100691.84
2022-12-03T15:32:03.638Z,100682.28
2022-12-03T15:34:31.642Z,100687.56
2022-12-03T15:36:59.838Z,100690.28
2022-12-03T15:39:30.059Z,100679.84
2022-12-03T15:41:59.449Z,100693.88
2022-12-03T15:44:27.469Z,100689.63
2022-12-03T15:46:58.147Z,100690.59
2022-12-03T15:49:26.223Z,100682.91
2022-12-03T15:51:54.619Z,100691.00
2022-12-03T15:54:22.680Z,100692.72
2022-12-03T15:56:56.961Z,100687.38
2022-12-03T15:59:25.907Z,100690.09
2022-12-03T16:01:53.966Z,100692.66
2022-12-03T16:04:22.373Z,100692.84
2022-12-03T16:06:50.776Z,100685.97
2022-12-03T16:09:23.657Z,100685.22
2022-12-03T16:11:56.366Z,100682.69
2022-12-03T16:14:24.307Z,100687.97
2022-12-03T16:16:52.606Z,100692.25
2022-12-03T16:19:20.607Z,100694.84
2022-12-03T16:21:51.455Z,100696.69
2022-12-03T16:24:19.684Z,100698.59
2022-12-03T16:52:07.916Z,100701.59
2022-12-03T16:54:36.088Z,100703.38
2022-12-03T16:57:05.920Z,100700.78
2022-12-03T16:59:34.147Z,100703.38
2022-12-03T17:02:03.640Z,100694.63
2022-12-03T17:04:32.229Z,100699.00
2022-12-03T17:07:00.346Z,100692.91
2022-12-03T17:09:28.780Z,100698.13
2022-12-03T17:11:56.918Z,100699.00
2022-12-03T17:14:28.638Z,100699.84
2022-12-03T17:17:01.873Z,100697.28
2022-12-03T17:19:31.626Z,100702.50
2022-12-03T17:21:59.975Z,100699.91
2022-12-03T17:24:28.405Z,100699.06
2022-12-03T17:26:56.838Z,100692.06
2022-12-03T17:29:25.005Z,100698.13
2022-12-03T17:31:53.134Z,100702.53
2022-12-03T17:34:21.328Z,100696.47
2022-12-03T17:36:50.789Z,100699.03
2022-12-03T17:39:18.989Z,100697.31
2022-12-03T17:41:47.422Z,100690.44
2022-12-03T17:44:20.813Z,100687.84
2022-12-03T17:46:49.526Z,100693.94
2022-12-03T17:49:17.677Z,100692.19
2022-12-03T17:51:45.800Z,100686.06
2022-12-03T17:54:15.396Z,100690.38
2022-12-03T17:56:44.200Z,100688.63
2022-12-03T17:59:13.443Z,100687.81
2022-12-03T18:01:41.757Z,100697.41
2022-12-03T18:04:13.008Z,100688.84
2022-12-03T18:06:41.261Z,100695.91
2022-12-03T18:09:09.436Z,100689.00
2022-12-03T18:11:39.442Z,100689.88
2022-12-03T18:14:07.687Z,100689.91
2022-12-03T18:16:36.344Z,100690.75
2022-12-03T18:19:06.408Z,100693.34
2022-12-03T18:21:37.106Z,100696.03
2022-12-03T18:24:05.900Z,100698.78
2022-12-03T18:26:34.416Z,100704.94
2022-12-03T18:29:05.879Z,100696.25
2022-12-03T18:31:34.933Z,100696.25
2022-12-03T18:34:03.136Z,100700.63
2022-12-03T18:36:36.376Z,100698.06
2022-12-03T18:39:09.249Z,100702.56
2022-12-03T18:41:37.178Z,100711.09
2022-12-03T18:44:10.839Z,100705.88
2022-12-03T18:46:53.574Z,100703.28
2022-12-03T18:49:23.500Z,100723.19
2022-12-03T18:51:58.724Z,100718.84
2022-12-03T18:54:27.680Z,100711.09
2022-12-03T18:56:55.939Z,100719.78
2022-12-03T18:59:25.343Z,100713.66
2022-12-03T19:01:53.911Z,100712.84
2022-12-03T19:04:22.206Z,100698.06
2022-12-03T19:06:50.568Z,100705.91
2022-12-03T19:09:19.392Z,100693.72
2022-12-03T19:11:48.073Z,100689.44
2022-12-03T19:14:16.868Z,100698.13
2022-12-03T19:16:46.910Z,100706.78
2022-12-03T19:19:15.409Z,100701.56
2022-12-03T19:21:46.282Z,100709.41
2022-12-03T19:24:30.363Z,100712.03
2022-12-03T19:26:58.924Z,100712.84
2022-12-03T19:29:27.335Z,100719.78
2022-12-03T19:31:57.161Z,100717.25
2022-12-03T19:34:25.460Z,100717.25
2022-12-03T19:36:53.930Z,100724.22
2022-12-03T19:39:22.476Z,100725.97
2022-12-03T19:41:51.010Z,100723.34
2022-12-03T19:44:20.590Z,100721.63
2022-12-03T19:46:51.367Z,100731.97
2022-12-03T19:49:23.610Z,100727.63
2022-12-03T19:51:53.275Z,100724.13
2022-12-03T19:54:22.276Z,100733.66
2022-12-03T19:56:50.819Z,100725.88
2022-12-03T19:59:19.546Z,100731.88
2022-12-03T20:01:48.144Z,100717.19
2022-12-03T20:04:16.809Z,100723.28
2022-12-03T20:06:48.132Z,100733.63
2022-12-03T20:09:18.084Z,100735.38
2022-12-03T20:11:47.215Z,100737.13
2022-12-03T20:14:18.009Z,100731.88
2022-12-03T20:16:46.467Z,100730.06
2022-12-03T20:19:16.854Z,100734.34
2022-12-03T20:21:47.005Z,100722.16
2022-12-03T20:24:18.178Z,100725.53
2022-12-03T20:26:47.839Z,100733.34
2022-12-03T20:29:16.417Z,100728.09
2022-12-03T20:31:45.057Z,100720.31
2022-12-03T20:34:14.018Z,100722.00
2022-12-03T20:36:43.412Z,100717.63
2022-12-03T20:39:14.647Z,100727.22
2022-12-03T20:41:42.768Z,100719.41
2022-12-03T20:44:11.410Z,100723.75
2022-12-03T20:46:39.981Z,100718.56
2022-12-03T20:49:08.836Z,100718.56
2022-12-03T20:51:37.794Z,100716.03
2022-12-03T20:54:06.594Z,100715.13
2022-12-03T20:56:39.934Z,100720.34
2022-12-03T20:59:12.636Z,100715.22
2022-12-03T21:01:41.180Z,100719.56
2022-12-03T21:04:11.289Z,100714.34
2022-12-03T21:06:42.657Z,100707.47
2022-12-03T21:09:12.126Z,100710.00
2022-12-03T21:11:43.095Z,100709.16
2022-12-03T21:14:12.806Z,100703.06
2022-12-03T21:19:31.036Z,100710.06
2022-12-03T21:21:59.408Z,100700.47
2022-12-03T21:24:28.028Z,100702.25
2022-12-03T21:26:57.586Z,100706.50
2022-12-03T21:29:26.107Z,100717.81
2022-12-03T21:31:54.393Z,100718.72
2022-12-03T21:34:22.846Z,100716.13
2022-12-03T21:36:51.114Z,100711.75
2022-12-03T21:39:23.484Z,100711.69
2022-12-03T21:42:34.223Z,100716.91
2022-12-03T21:44:42.665Z,100699.47
2022-12-03T21:47:14.251Z,100694.25
2022-12-03T21:49:42.898Z,100696.84
2022-12-03T21:52:12.196Z,100694.25
2022-12-03T21:54:40.839Z,100696.78
2022-12-03T21:57:09.741Z,100701.97
2022-12-03T21:59:38.251Z,100702.81
2022-12-03T22:02:08.379Z,100697.63
2022-12-03T22:04:36.507Z,100696.75
2022-12-03T22:07:06.052Z,100696.69
2022-12-03T22:09:34.895Z,100704.50
2022-12-03T22:12:03.142Z,100699.28
2022-12-03T22:14:32.882Z,100703.66
2022-12-03T22:17:00.989Z,100707.19
2022-12-03T22:19:33.235Z,100697.69
2022-12-03T22:22:01.450Z,100708.97
2022-12-03T22:24:29.531Z,100694.25
2022-12-03T22:26:57.581Z,100702.13
2022-12-03T22:29:25.651Z,100687.41
2022-12-03T22:31:53.730Z,100688.34
2022-12-03T22:34:21.751Z,100692.75
2022-12-03T22:36:51.116Z,100696.25
2022-12-03T22:39:19.556Z,100680.75
2022-12-03T22:41:47.643Z,100687.56
2022-12-03T22:44:15.672Z,100689.41
2022-12-03T22:46:43.766Z,100690.25
2022-12-03T22:49:13.723Z,100687.56
2022-12-03T22:51:41.881Z,100690.19
2022-12-03T22:54:11.779Z,100687.56
2022-12-03T22:56:39.829Z,100678.00
2022-12-03T22:59:08.089Z,100684.88
2022-12-03T23:01:38.400Z,100685.72
2022-12-03T23:04:07.996Z,100685.66
2022-12-03T23:06:37.903Z,100688.28
2022-12-03T23:09:07.171Z,100687.41
2022-12-03T23:11:37.381Z,100680.50
2022-12-03T23:14:05.836Z,100670.19
2022-12-03T23:16:34.392Z,100674.47
2022-12-03T23:19:03.659Z,100672.66
2022-12-03T23:21:34.193Z,100674.41
2022-12-03T23:24:03.619Z,100679.78
2022-12-03T23:26:34.395Z,100674.50
2022-12-03T23:29:04.728Z,100666.72
2022-12-03T23:31:34.355Z,100671.03
2022-12-03T23:34:02.783Z,100670.19
2022-12-03T23:36:33.924Z,100666.66
2022-12-03T23:39:01.919Z,100660.59
2022-12-03T23:41:30.022Z,100664.88
2022-12-03T23:43:58.111Z,100656.16
2022-12-03T23:46:28.575Z,100656.13
2022-12-03T23:48:58.610Z,100660.50
2022-12-03T23:51:27.107Z,100658.84
2022-12-03T23:53:56.255Z,100659.75
2022-12-03T23:56:27.093Z,100665.91
2022-12-03T23:58:55.074Z,100661.53
